Time;durP1;ratioP1;P1;durP2;ratioP2;P2;SDS_P1;SDS_P2;PMS_P1;PMS_P2;Temp;Humidity;BMP_temperature;BMP_pressure;BME280_temperature;BME280_humidity;BME280_pressure;Samples;Min_cycle;Max_cycle;Signal;HPM_P1;HPM_P2
2023/11/24 00:01:13;;;;;;;7.47;1.25;;;;;;;7.39;100.00;101259.78;5132770;27;20051;-55
2023/11/24 00:03:41;;;;;;;7.53;1.17;;;;;;;7.28;100.00;101262.03;5136164;27;20468;-53
2023/11/24 00:06:11;;;;;;;7.40;1.95;;;;;;;7.21;100.00;101243.16;5133413;27;20043;-55
2023/11/24 00:08:41;;;;;;;4.22;0.80;;;;;;;7.17;100.00;101246.81;5134291;27;20050;-57
2023/11/24 00:11:09;;;;;;;4.95;1.05;;;;;;;7.12;100.00;101230.47;5132208;27;20096;-55
2023/11/24 00:13:37;;;;;;;8.48;1.10;;;;;;;7.09;100.00;101228.00;5133846;27;20051;-56
2023/11/24 00:16:07;;;;;;;3.40;0.75;;;;;;;7.06;100.00;101229.00;5131488;27;20051;-53
2023/11/24 00:18:35;;;;;;;4.53;0.85;;;;;;;7.03;100.00;101231.72;5133176;27;20131;-54
2023/11/24 00:21:06;;;;;;;4.82;0.75;;;;;;;7.00;100.00;101238.88;5133369;27;20043;-55
2023/11/24 00:23:35;;;;;;;7.63;1.40;;;;;;;6.97;100.00;101223.28;5133519;27;20047;-54
2023/11/24 00:26:05;;;;;;;4.70;1.00;;;;;;;6.94;100.00;101232.97;5131610;27;20501;-54
2023/11/24 00:28:34;;;;;;;5.60;0.90;;;;;;;6.87;100.00;101231.56;5133755;27;20039;-55
2023/11/24 00:31:05;;;;;;;6.10;1.10;;;;;;;6.84;100.00;101239.50;5135780;27;20100;-55
2023/11/24 00:33:34;;;;;;;6.40;1.25;;;;;;;6.81;100.00;101236.19;5134109;27;20051;-54
2023/11/24 00:36:03;;;;;;;8.07;1.13;;;;;;;6.78;100.00;101234.56;5131867;27;20071;-55
2023/11/24 00:38:34;;;;;;;8.23;1.50;;;;;;;6.81;100.00;101241.44;5132958;27;20047;-55
2023/11/24 00:41:03;;;;;;;9.00;1.40;;;;;;;6.79;100.00;101222.31;5131468;27;20078;-54
2023/11/24 00:43:32;;;;;;;7.65;1.35;;;;;;;6.78;100.00;101229.34;5133527;27;20043;-54
2023/11/24 00:46:00;;;;;;;9.52;1.20;;;;;;;6.79;100.00;101231.03;5132876;27;20039;-53
2023/11/24 00:48:28;;;;;;;7.78;1.40;;;;;;;6.80;100.00;101224.88;5132624;27;20104;-55
2023/11/24 00:50:56;;;;;;;4.82;1.10;;;;;;;6.79;100.00;101217.97;5132698;27;20138;-55
2023/11/24 00:53:25;;;;;;;5.82;1.10;;;;;;;6.78;100.00;101208.41;5132623;27;20055;-54
2023/11/24 00:55:53;;;;;;;9.10;1.73;;;;;;;6.77;100.00;101197.09;5131758;27;20490;-54
2023/11/24 00:58:22;;;;;;;8.65;1.45;;;;;;;6.80;100.00;101203.97;5135182;27;20043;-54
2023/11/24 01:00:51;;;;;;;11.20;1.83;;;;;;;6.84;100.00;101205.53;5134994;27;20062;-54
2023/11/24 01:03:19;;;;;;;12.52;1.77;;;;;;;6.85;100.00;101196.78;5135176;27;20043;-56
2023/11/24 01:05:48;;;;;;;10.10;1.73;;;;;;;6.90;100.00;101199.19;5132423;27;20771;-56
2023/11/24 01:08:17;;;;;;;15.35;2.05;;;;;;;6.88;100.00;101190.56;5132232;27;20615;-55
2023/11/24 01:10:45;;;;;;;10.57;1.40;;;;;;;6.90;100.00;101193.97;5129929;27;20043;-56
2023/11/24 01:13:13;;;;;;;14.30;1.83;;;;;;;6.90;100.00;101192.19;5130853;27;20497;-54
2023/11/24 01:15:43;;;;;;;14.43;2.30;;;;;;;6.93;100.00;101184.22;5132269;27;20035;-55
2023/11/24 01:18:14;;;;;;;8.90;2.20;;;;;;;6.87;100.00;101189.72;5131704;27;20058;-54
2023/11/24 01:20:42;;;;;;;7.28;1.42;;;;;;;6.86;100.00;101192.41;5132160;27;20055;-55
2023/11/24 01:23:10;;;;;;;8.35;1.92;;;;;;;6.81;100.00;101191.75;5131970;27;20050;-54
2023/11/24 01:25:39;;;;;;;11.50;1.70;;;;;;;6.77;100.00;101189.25;5130759;27;20039;-54
2023/11/24 01:28:07;;;;;;;12.68;1.70;;;;;;;6.73;100.00;101182.47;5132122;27;20480;-55
2023/11/24 01:30:35;;;;;;;9.63;1.65;;;;;;;6.68;100.00;101188.81;5130680;27;20470;-55
2023/11/24 01:33:05;;;;;;;10.30;1.98;;;;;;;6.64;100.00;101179.41;5130574;27;20142;-53
2023/11/24 01:35:33;;;;;;;8.35;1.52;;;;;;;6.65;100.00;101183.72;5131513;27;20043;-54
2023/11/24 01:38:01;;;;;;;11.68;1.80;;;;;;;6.62;100.00;101186.47;5131619;27;20039;-54
2023/11/24 01:40:29;;;;;;;12.75;2.10;;;;;;;6.62;100.00;101186.47;5132940;27;20043;-54
2023/11/24 01:42:57;;;;;;;12.38;1.63;;;;;;;6.70;100.00;101189.59;5132222;27;20059;-55
2023/11/24 01:45:25;;;;;;;12.90;1.75;;;;;;;6.68;100.00;101188.81;5130860;27;20126;-56
2023/11/24 01:47:54;;;;;;;12.05;2.28;;;;;;;6.62;100.00;101186.47;5131649;27;20082;-54
2023/11/24 01:50:24;;;;;;;13.65;2.10;;;;;;;6.58;100.00;101188.38;5131343;27;20126;-53
2023/11/24 01:52:53;;;;;;;13.82;2.00;;;;;;;6.52;100.00;101184.25;5133109;27;20047;-54
2023/11/24 01:55:23;;;;;;;16.98;2.72;;;;;;;6.45;100.00;101179.34;5133883;27;20075;-54
2023/11/24 01:57:52;;;;;;;11.18;2.08;;;;;;;6.47;100.00;101185.38;5130011;27;20047;-56
2023/11/24 02:00:34;;;;;;;11.90;2.15;;;;;;;6.46;100.00;101184.50;5130797;27;20486;-53
2023/11/24 02:03:02;;;;;;;14.48;1.98;;;;;;;6.45;100.00;101176.72;5132120;27;20045;-54
2023/11/24 02:05:32;;;;;;;10.60;1.65;;;;;;;6.41;100.00;101173.41;5130926;27;20089;-49
2023/11/24 02:08:01;;;;;;;13.90;1.77;;;;;;;6.37;100.00;101164.00;5130181;27;20043;-46
2023/11/24 02:10:29;;;;;;;12.45;1.95;;;;;;;6.40;100.00;101163.88;5132628;27;20043;-46
2023/11/24 02:12:57;;;;;;;11.90;1.60;;;;;;;6.41;100.00;101155.13;5132949;27;20043;-47
2023/11/24 02:15:25;;;;;;;14.93;1.88;;;;;;;6.38;100.00;101161.31;5129958;27;20453;-46
2023/11/24 02:17:53;;;;;;;14.93;2.53;;;;;;;6.37;100.00;101158.78;5130792;27;20047;-46
2023/11/24 02:20:24;;;;;;;13.82;2.15;;;;;;;6.37;100.00;101154.41;5129304;27;20070;-46
2023/11/24 02:22:53;;;;;;;13.70;1.88;;;;;;;6.36;100.00;101155.31;5132393;27;20569;-47
2023/11/24 02:25:22;;;;;;;13.30;2.20;;;;;;;6.32;100.00;101153.72;5133175;27;20070;-47
2023/11/24 02:27:50;;;;;;;10.20;1.65;;;;;;;6.37;100.00;101154.41;5133214;27;20546;-46
2023/11/24 02:30:18;;;;;;;9.90;1.73;;;;;;;6.33;100.00;101150.22;5133056;27;20046;-46
2023/11/24 02:32:47;;;;;;;11.75;2.03;;;;;;;6.30;100.00;101150.34;5129883;27;20132;-48
2023/11/24 02:35:15;;;;;;;14.18;2.08;;;;;;;6.28;100.00;101146.09;5129223;27;20047;-48
2023/11/24 02:37:45;;;;;;;17.40;1.88;;;;;;;6.27;100.00;101137.41;5132496;27;20039;-48
2023/11/24 02:40:15;;;;;;;10.18;1.55;;;;;;;6.25;100.00;101140.09;5128087;27;20054;-47
2023/11/24 02:42:43;;;;;;;9.20;1.80;;;;;;;6.23;100.00;101141.06;5129786;27;20069;-50
2023/11/24 02:45:12;;;;;;;14.63;2.03;;;;;;;6.24;100.00;101130.56;5129031;27;20047;-49
2023/11/24 02:47:40;;;;;;;11.32;2.38;;;;;;;6.23;100.00;101134.09;5129817;27;20375;-50
2023/11/24 02:50:09;;;;;;;14.73;2.85;;;;;;;6.18;100.00;101128.19;5132659;27;20057;-50
2023/11/24 02:52:37;;;;;;;10.43;1.90;;;;;;;6.21;100.00;101133.28;5131733;27;20090;-46
2023/11/24 02:55:06;;;;;;;14.95;2.28;;;;;;;6.20;100.00;101134.22;5128386;27;20100;-46
2023/11/24 02:57:36;;;;;;;12.50;2.20;;;;;;;6.16;100.00;101122.22;5129055;27;20647;-48
2023/11/24 03:00:06;;;;;;;12.57;1.90;;;;;;;6.14;100.00;101117.97;5132909;27;20039;-46
2023/11/24 03:02:34;;;;;;;10.82;1.90;;;;;;;6.12;100.00;101123.22;5129752;27;20500;-47
2023/11/24 03:05:02;;;;;;;9.50;1.55;;;;;;;6.11;100.00;101118.06;5129127;28;20413;-48
2023/11/24 03:07:30;;;;;;;9.80;1.58;;;;;;;6.08;100.00;101108.59;5129110;28;20051;-49
2023/11/24 03:09:58;;;;;;;12.38;1.88;;;;;;;6.07;100.00;101110.38;5128555;28;20043;-47
2023/11/24 03:12:27;;;;;;;10.05;1.90;;;;;;;6.05;100.00;101100.91;5128481;28;20070;-49
2023/11/24 03:14:56;;;;;;;12.45;1.80;;;;;;;6.06;100.00;101093.00;5132062;28;20077;-49
2023/11/24 03:17:24;;;;;;;11.68;2.30;;;;;;;6.03;100.00;101087.91;5132344;27;20378;-49
2023/11/24 03:19:52;;;;;;;10.98;1.70;;;;;;;6.06;100.00;101092.16;5132494;28;20052;-46
2023/11/24 03:22:21;;;;;;;10.55;1.50;;;;;;;6.02;100.00;101081.00;5131001;27;20134;-46
2023/11/24 03:24:49;;;;;;;11.32;2.03;;;;;;;6.01;100.00;101075.84;5129392;28;20401;-48
2023/11/24 03:27:17;;;;;;;9.85;1.73;;;;;;;6.01;100.00;101078.44;5130180;28;20050;-46
2023/11/24 03:29:45;;;;;;;6.82;1.60;;;;;;;6.03;100.00;101081.84;5132062;27;20055;-45
2023/11/24 03:32:15;;;;;;;8.45;1.50;;;;;;;5.99;100.00;101088.97;5128816;28;20039;-47
2023/11/24 03:34:43;;;;;;;9.82;1.67;;;;;;;6.01;100.00;101094.97;5129280;28;20050;-45
2023/11/24 03:37:11;;;;;;;10.90;1.60;;;;;;;6.07;100.00;101099.09;5130713;28;20107;-46
2023/11/24 03:39:39;;;;;;;9.90;1.80;;;;;;;6.07;100.00;101112.16;5132614;28;20051;-47
2023/11/24 03:42:08;;;;;;;10.10;1.40;;;;;;;6.08;100.00;101112.09;5129996;28;20052;-49
2023/11/24 03:44:38;;;;;;;13.88;2.10;;;;;;;6.10;100.00;101104.19;5128157;27;20057;-45
2023/11/24 03:47:06;;;;;;;10.38;1.35;;;;;;;6.07;100.00;101105.16;5129830;28;20369;-47
2023/11/24 03:49:36;;;;;;;11.13;2.28;;;;;;;6.05;100.00;101106.13;5130521;28;20055;-47
2023/11/24 03:52:05;;;;;;;8.40;1.50;;;;;;;6.07;100.00;101115.59;5128299;28;20050;-48
2023/11/24 03:54:33;;;;;;;7.32;1.50;;;;;;;6.05;100.00;101103.50;5131773;28;20051;-49
2023/11/24 03:57:01;;;;;;;9.48;1.52;;;;;;;6.03;100.00;101111.41;5131894;28;20482;-46
2023/11/24 03:59:32;;;;;;;8.98;1.38;;;;;;;6.05;100.00;101111.34;5128981;28;20039;-48
2023/11/24 04:02:00;;;;;;;11.73;1.25;;;;;;;6.04;100.00;101093.97;5129069;28;20058;-49
2023/11/24 04:04:28;;;;;;;7.43;1.27;;;;;;;6.00;100.00;101101.09;5131002;28;20402;-50
2023/11/24 04:06:58;;;;;;;12.02;1.83;;;;;;;6.00;100.00;101101.09;5128304;28;20051;-47
2023/11/24 04:09:27;;;;;;;9.48;1.30;;;;;;;5.99;100.00;101101.19;5129922;27;20055;-48
2023/11/24 04:11:55;;;;;;;8.02;1.30;;;;;;;5.92;100.00;101100.53;5130997;27;20417;-50
2023/11/24 04:14:24;;;;;;;8.65;1.27;;;;;;;5.92;100.00;101096.16;5135882;27;20039;-48
2023/11/24 04:16:52;;;;;;;10.48;1.35;;;;;;;5.88;100.00;101094.59;5133861;27;20062;-50
2023/11/24 04:19:20;;;;;;;6.75;1.38;;;;;;;5.84;100.00;101085.19;5132004;27;20074;-46
2023/11/24 04:21:48;;;;;;;8.05;1.45;;;;;;;5.84;100.00;101082.59;5132005;27;20555;-49
2023/11/24 04:24:18;;;;;;;6.45;1.42;;;;;;;5.87;100.00;101069.41;5132250;27;20134;-49
2023/11/24 04:26:46;;;;;;;8.68;1.20;;;;;;;5.87;100.00;101064.19;5131637;27;20046;-49
2023/11/24 04:29:15;;;;;;;6.75;1.00;;;;;;;5.84;100.00;101058.25;5133099;27;20054;-47
2023/11/24 04:31:44;;;;;;;11.63;1.48;;;;;;;5.85;100.00;101052.97;5132542;27;20058;-55
2023/11/24 04:34:12;;;;;;;12.10;1.48;;;;;;;5.83;100.00;101052.16;5132028;27;20471;-53
2023/11/24 04:36:40;;;;;;;9.25;2.10;;;;;;;5.84;100.00;101051.25;5131880;27;20047;-53
2023/11/24 04:39:09;;;;;;;11.18;1.27;;;;;;;5.83;100.00;101041.72;5133143;27;20070;-54
2023/11/24 04:41:40;;;;;;;8.73;2.05;;;;;;;5.83;100.00;101036.50;5133984;27;20380;-53
2023/11/24 04:44:13;;;;;;;12.00;2.28;;;;;;;5.83;100.00;101038.28;5131658;27;20054;-51
2023/11/24 04:46:41;;;;;;;8.65;1.15;;;;;;;5.81;100.00;101029.66;5132147;27;20047;-52
2023/11/24 04:49:09;;;;;;;11.45;1.83;;;;;;;5.76;100.00;101028.09;5131590;27;20085;-52
2023/11/24 04:51:37;;;;;;;8.52;1.48;;;;;;;5.73;100.00;101017.78;5132037;27;20039;-53
2023/11/24 04:54:06;;;;;;;14.30;1.30;;;;;;;5.70;100.00;101015.31;5131952;27;20047;-53
2023/11/24 04:56:34;;;;;;;9.38;1.67;;;;;;;5.70;100.00;101007.47;5130470;27;20454;-53
2023/11/24 04:59:05;;;;;;;10.82;1.40;;;;;;;5.70;100.00;101015.31;5131955;27;20043;-54
2023/11/24 05:01:33;;;;;;;11.88;1.60;;;;;;;5.71;100.00;101008.31;5131942;27;20505;-53
2023/11/24 05:04:05;;;;;;;10.80;1.73;;;;;;;5.71;100.00;101003.97;5131500;27;20054;-53
2023/11/24 05:06:33;;;;;;;9.80;2.15;;;;;;;5.73;100.00;101006.50;5132107;27;20131;-53
2023/11/24 05:09:03;;;;;;;4.97;1.17;;;;;;;5.74;100.00;101006.44;5132239;27;20035;-54
2023/11/24 05:11:32;;;;;;;6.80;1.08;;;;;;;5.74;100.00;101008.22;5130922;27;20071;-55
2023/11/24 05:14:00;;;;;;;7.05;1.50;;;;;;;5.73;100.00;101016.94;5132239;27;20047;-55
2023/11/24 05:16:29;;;;;;;8.45;1.33;;;;;;;5.72;100.00;101017.84;5131984;27;20043;-54
2023/11/24 05:18:57;;;;;;;6.72;1.13;;;;;;;5.71;100.00;101017.00;5133515;27;20052;-55
2023/11/24 05:21:26;;;;;;;11.65;1.45;;;;;;;5.70;100.00;101023.13;5134246;27;20603;-53
2023/11/24 05:23:56;;;;;;;11.07;1.98;;;;;;;5.69;100.00;101020.59;5132250;27;20435;-54
2023/11/24 05:26:24;;;;;;;10.60;1.73;;;;;;;5.68;100.00;101024.94;5129421;27;20041;-53
2023/11/24 05:28:52;;;;;;;10.95;2.08;;;;;;;5.66;100.00;101020.69;5131640;27;20055;-53
2023/11/24 05:31:21;;;;;;;7.68;1.33;;;;;;;5.64;100.00;101012.94;5131333;27;20486;-54
2023/11/24 05:33:51;;;;;;;8.95;1.30;;;;;;;5.65;100.00;101009.41;5131509;27;20450;-54
2023/11/24 05:36:19;;;;;;;9.65;1.30;;;;;;;5.68;100.00;101017.13;5131139;27;20039;-54
2023/11/24 05:38:48;;;;;;;10.80;1.35;;;;;;;5.73;100.00;101020.38;5131627;27;20058;-54
2023/11/24 05:41:16;;;;;;;8.25;1.20;;;;;;;5.67;100.00;101023.28;5129136;27;20039;-53
2023/11/24 05:43:45;;;;;;;7.82;1.33;;;;;;;5.66;100.00;101036.34;5134093;27;20481;-53
2023/11/24 05:46:13;;;;;;;6.30;1.33;;;;;;;5.73;100.00;101032.59;5134196;27;20047;-53
2023/11/24 05:48:41;;;;;;;8.70;1.08;;;;;;;5.71;100.00;101034.41;5133842;27;20766;-55
2023/11/24 05:51:11;;;;;;;6.32;1.25;;;;;;;5.68;100.00;101030.16;5130731;27;20122;-54
2023/11/24 05:53:39;;;;;;;9.65;1.10;;;;;;;5.63;100.00;101032.13;5130970;27;20043;-53
2023/11/24 05:56:09;;;;;;;8.43;1.75;;;;;;;5.57;100.00;101019.34;5129961;27;20051;-53
2023/11/24 05:58:37;;;;;;;8.75;1.23;;;;;;;5.51;100.00;101025.66;5132348;27;20050;-51
2023/11/24 06:01:06;;;;;;;12.77;1.50;;;;;;;5.44;100.00;101019.00;5131511;27;20046;-53
2023/11/24 06:03:34;;;;;;;4.03;0.85;;;;;;;5.44;100.00;101003.34;5131339;27;20043;-52
2023/11/24 06:06:02;;;;;;;10.85;1.73;;;;;;;5.41;100.00;101009.53;5130346;27;20145;-51
2023/11/24 06:08:31;;;;;;;9.40;1.25;;;;;;;5.38;100.00;100995.75;5130218;27;20463;-54
2023/11/24 06:11:00;;;;;;;9.75;1.70;;;;;;;5.35;100.00;100999.34;5128935;27;20393;-54
2023/11/24 06:13:28;;;;;;;9.07;1.15;;;;;;;5.32;100.00;100996.88;5132050;27;20039;-52
2023/11/24 06:15:57;;;;;;;9.32;1.23;;;;;;;5.31;100.00;100989.09;5133656;27;20512;-54
2023/11/24 06:18:26;;;;;;;3.78;0.85;;;;;;;5.28;100.00;100994.47;5133466;27;20053;-54
2023/11/24 06:20:54;;;;;;;9.23;1.35;;;;;;;5.27;100.00;100990.16;5133122;27;20047;-52
2023/11/24 06:23:22;;;;;;;5.97;1.30;;;;;;;5.27;100.00;100998.81;5130003;27;20051;-50
2023/11/24 06:25:52;;;;;;;5.68;0.90;;;;;;;5.25;100.00;100975.41;5128787;27;20043;-51
2023/11/24 06:28:20;;;;;;;10.75;1.15;;;;;;;5.23;100.00;100982.41;5111397;27;20498;-46
2023/11/24 06:30:48;;;;;;;8.32;1.20;;;;;;;5.22;100.00;100985.97;5129967;27;20533;-53
2023/11/24 06:33:16;;;;;;;9.57;1.35;;;;;;;5.20;100.00;100995.59;5128949;27;20054;-48
2023/11/24 06:35:45;;;;;;;7.35;1.10;;;;;;;5.22;100.00;101000.75;5129777;27;20043;-45
2023/11/24 06:38:13;;;;;;;5.63;1.20;;;;;;;5.21;100.00;100989.47;5130619;27;20051;-47
2023/11/24 06:40:43;;;;;;;10.23;1.45;;;;;;;5.25;100.00;101004.09;5133067;27;20494;-45
2023/11/24 06:43:13;;;;;;;12.63;1.85;;;;;;;5.23;100.00;100992.84;5130203;27;20043;-46
2023/11/24 06:45:41;;;;;;;11.60;1.67;;;;;;;5.23;100.00;100992.84;5130131;27;20047;-53
2023/11/24 06:48:09;;;;;;;8.55;1.45;;;;;;;5.21;100.00;100989.47;5130364;27;20051;-50
2023/11/24 06:50:37;;;;;;;5.93;1.00;;;;;;;5.22;100.00;100988.56;5129947;27;20107;-52
2023/11/24 06:53:05;;;;;;;9.88;1.85;;;;;;;5.20;100.00;100995.59;5130150;27;20121;-53
2023/11/24 06:55:34;;;;;;;7.55;0.98;;;;;;;5.22;100.00;100996.41;5114066;28;20481;-53
2023/11/24 06:58:04;;;;;;;11.50;2.20;;;;;;;5.22;100.00;100990.31;5112026;28;20446;-54
2023/11/24 07:00:34;;;;;;;10.07;1.23;;;;;;;5.23;100.00;100989.41;5111106;27;20051;-54
2023/11/24 07:03:03;;;;;;;7.10;1.27;;;;;;;5.21;100.00;100983.44;5130063;27;20642;-54
2023/11/24 07:05:32;;;;;;;9.85;1.38;;;;;;;5.21;100.00;100980.81;5128856;28;20075;-51
2023/11/24 07:08:00;;;;;;;9.23;1.33;;;;;;;5.16;100.00;100994.03;5129675;28;20061;-47
2023/11/24 07:10:29;;;;;;;7.30;1.88;;;;;;;5.13;100.00;100986.31;5127533;28;20108;-52
2023/11/24 07:12:59;;;;;;;5.25;1.20;;;;;;;5.08;100.00;100983.06;5132455;28;20074;-50
2023/11/24 07:15:27;;;;;;;7.82;1.10;;;;;;;5.04;100.00;100977.09;5127903;28;20119;-46
2023/11/24 07:17:57;;;;;;;9.93;1.20;;;;;;;5.02;100.00;100985.91;5131046;27;20502;-46
2023/11/24 07:20:25;;;;;;;4.20;1.17;;;;;;;5.04;100.00;100987.53;5132529;28;20114;-48
2023/11/24 07:22:54;;;;;;;11.02;2.08;;;;;;;5.05;100.00;100991.84;5132802;27;20524;-46
2023/11/24 07:25:22;;;;;;;3.38;0.82;;;;;;;5.03;100.00;100998.88;5132793;27;20552;-47
2023/11/24 07:27:51;;;;;;;10.95;1.30;;;;;;;5.02;100.00;100998.94;5132480;28;20039;-46
2023/11/24 07:30:19;;;;;;;7.07;1.20;;;;;;;5.00;100.00;101001.59;5129962;27;20470;-54
2023/11/24 07:32:50;;;;;;;3.80;0.90;;;;;;;4.99;100.00;101002.53;5129586;27;20069;-53
2023/11/24 07:35:20;;;;;;;6.28;1.38;;;;;;;4.90;100.00;101001.09;5131569;28;20065;-52
2023/11/24 07:37:48;;;;;;;9.25;1.52;;;;;;;4.90;100.00;100992.44;5129271;27;20100;-53
2023/11/24 07:40:16;;;;;;;8.10;1.17;;;;;;;4.87;100.00;100975.16;5127422;28;20672;-54
2023/11/24 07:42:46;;;;;;;6.45;1.05;;;;;;;4.85;100.00;100977.00;5131298;28;20405;-46
2023/11/24 07:45:15;;;;;;;7.50;1.17;;;;;;;4.83;100.00;100980.56;5133261;27;20122;-47
2023/11/24 07:47:44;;;;;;;8.13;1.30;;;;;;;4.81;100.00;100979.78;5133107;27;20058;-49
2023/11/24 07:50:12;;;;;;;7.32;1.08;;;;;;;4.83;100.00;100984.03;5136210;27;20043;-47
2023/11/24 07:52:43;;;;;;;8.25;1.52;;;;;;;4.89;100.00;100973.38;5136353;27;20118;-48
2023/11/24 07:55:13;;;;;;;5.97;1.33;;;;;;;4.90;100.00;100969.00;5136392;27;20042;-51
2023/11/24 07:57:42;;;;;;;7.43;1.58;;;;;;;4.87;100.00;100949.13;5134617;27;20051;-49
2023/11/24 08:00:12;;;;;;;7.03;1.15;;;;;;;4.98;100.00;100938.25;5131994;27;20059;-46
2023/11/24 08:02:42;;;;;;;4.80;0.98;;;;;;;4.93;100.00;100940.19;5135924;27;20043;-47
2023/11/24 08:05:11;;;;;;;7.65;1.27;;;;;;;4.91;100.00;100937.66;5132447;27;20130;-46
2023/11/24 08:07:44;;;;;;;6.05;1.20;;;;;;;4.89;100.00;100939.50;5134290;27;20055;-48
2023/11/24 08:10:12;;;;;;;7.57;1.02;;;;;;;4.87;100.00;100941.28;5135608;27;20035;-50
2023/11/24 08:12:41;;;;;;;5.90;0.90;;;;;;;4.85;100.00;100937.03;5136086;27;20043;-50
2023/11/24 08:15:10;;;;;;;5.30;1.27;;;;;;;4.89;100.00;100936.88;5132182;27;20039;-47
2023/11/24 08:17:38;;;;;;;4.25;1.15;;;;;;;5.01;100.00;100935.53;5132777;27;20072;-47
2023/11/24 08:20:10;;;;;;;8.20;1.30;;;;;;;5.02;100.00;100941.59;5131521;27;20039;-47
2023/11/24 08:22:39;;;;;;;7.07;1.15;;;;;;;4.99;100.00;100944.31;5132816;27;20049;-48
2023/11/24 08:25:11;;;;;;;5.35;1.00;;;;;;;4.95;100.00;100941.00;5131039;27;20054;-48
2023/11/24 08:27:40;;;;;;;5.90;0.98;;;;;;;4.95;100.00;100948.81;5135382;27;20055;-48
2023/11/24 08:30:11;;;;;;;6.13;1.20;;;;;;;4.90;100.00;100942.94;5135448;27;20047;-47
2023/11/24 08:32:40;;;;;;;4.32;0.98;;;;;;;4.86;100.00;100939.59;5135703;27;20049;-47
2023/11/24 08:35:13;;;;;;;2.40;0.70;;;;;;;4.88;100.00;100948.22;5135615;27;20193;-46
2023/11/24 08:37:41;;;;;;;5.93;0.90;;;;;;;4.91;100.00;100944.63;5132804;27;20093;-46
2023/11/24 08:40:14;;;;;;;9.15;0.90;;;;;;;4.91;100.00;100944.63;5130614;27;20035;-47
2023/11/24 08:42:47;;;;;;;5.72;1.00;;;;;;;4.90;100.00;100953.34;5133119;27;20035;-46
2023/11/24 08:45:16;;;;;;;6.82;1.02;;;;;;;4.89;100.00;100931.66;5134107;27;20112;-48
2023/11/24 08:47:46;;;;;;;5.22;0.90;;;;;;;4.94;100.00;100938.47;5133461;27;20104;-50
2023/11/24 08:50:18;;;;;;;3.40;0.80;;;;;;;4.86;100.00;100931.78;5131390;27;20104;-49
2023/11/24 08:52:47;;;;;;;6.07;0.90;;;;;;;4.83;100.00;100931.06;5132115;27;20057;-50
2023/11/24 08:55:17;;;;;;;4.35;0.90;;;;;;;4.85;100.00;100939.66;5129011;27;20467;-45
2023/11/24 08:57:46;;;;;;;6.22;0.70;;;;;;;4.84;100.00;100946.63;5131922;27;20122;-46
2023/11/24 09:00:15;;;;;;;4.68;2.10;;;;;;;4.86;100.00;100943.97;5129752;27;20141;-48
2023/11/24 09:02:44;;;;;;;9.07;1.15;;;;;;;4.85;100.00;100944.88;5131631;27;20092;-49
2023/11/24 09:05:13;;;;;;;7.47;1.13;;;;;;;4.82;100.00;100935.41;5130707;27;20510;-50
2023/11/24 09:07:41;;;;;;;4.47;0.90;;;;;;;4.86;100.00;100923.13;5134720;27;20047;-51
2023/11/24 09:10:10;;;;;;;7.07;0.80;;;;;;;4.84;100.00;100925.78;5131358;27;20826;-47
2023/11/24 09:12:39;;;;;;;4.00;0.90;;;;;;;4.83;100.00;100916.25;5131203;27;20059;-48
2023/11/24 09:15:10;;;;;;;3.78;0.88;;;;;;;4.82;100.00;100927.59;5133602;27;20072;-46
2023/11/24 09:17:38;;;;;;;4.20;0.60;;;;;;;4.78;100.00;100933.00;5134509;27;20050;-50
2023/11/24 09:20:09;;;;;;;5.05;0.93;;;;;;;4.78;100.00;100928.63;5130954;27;20035;-47
2023/11/24 09:22:37;;;;;;;5.70;0.70;;;;;;;4.86;100.00;100925.72;5131324;27;20039;-46
2023/11/24 09:25:08;;;;;;;4.85;0.80;;;;;;;4.91;100.00;100919.41;5133066;27;20043;-47
2023/11/24 09:27:36;;;;;;;4.68;1.05;;;;;;;4.95;100.00;100919.28;5134795;27;20074;-49
2023/11/24 09:30:08;;;;;;;6.32;0.77;;;;;;;4.88;100.00;100914.31;5130763;27;20043;-47
2023/11/24 09:32:39;;;;;;;2.72;0.80;;;;;;;4.90;100.00;100916.88;5131921;27;20062;-47
2023/11/24 09:35:08;;;;;;;4.90;0.80;;;;;;;4.92;100.00;100912.44;5134422;27;20053;-48
2023/11/24 09:37:36;;;;;;;5.97;0.90;;;;;;;4.96;100.00;100905.34;5134258;27;20051;-47
2023/11/24 09:40:12;;;;;;;5.57;0.98;;;;;;;5.06;100.00;100896.25;5130774;27;20043;-49
2023/11/24 09:42:44;;;;;;;3.53;0.80;;;;;;;5.13;100.00;100902.91;5131401;27;20134;-46
2023/11/24 09:45:17;;;;;;;6.70;1.50;;;;;;;5.37;100.00;100915.81;5134118;27;20100;-45
2023/11/24 09:47:48;;;;;;;3.22;0.80;;;;;;;5.47;100.00;100917.13;5133884;27;20082;-46
2023/11/24 09:50:23;;;;;;;3.45;0.80;;;;;;;5.42;100.00;100912.09;5133611;27;20051;-47
2023/11/24 09:52:54;;;;;;;3.55;0.80;;;;;;;5.46;100.00;100919.81;5131108;27;20039;-48
2023/11/24 09:55:22;;;;;;;7.00;1.15;;;;;;;5.34;100.00;100914.19;5128635;27;20070;-47
2023/11/24 09:57:55;;;;;;;5.05;1.17;;;;;;;5.40;100.00;100926.13;5131062;27;20078;-46
2023/11/24 10:00:26;;;;;;;7.80;1.00;;;;;;;5.46;100.00;100922.41;5129853;27;20054;-47
2023/11/24 10:02:59;;;;;;;5.40;1.05;;;;;;;5.35;100.00;100913.28;5130048;27;20421;-49
2023/11/24 10:05:28;;;;;;;3.25;0.77;;;;;;;5.36;100.00;100911.53;5129714;27;20398;-50
2023/11/24 10:07:58;;;;;;;5.43;1.02;;;;;;;5.39;100.00;100907.00;5129247;27;20557;-46
2023/11/24 10:10:28;;;;;;;6.03;1.00;;;;;;;5.50;100.00;100917.00;5131240;27;20049;-49
2023/11/24 10:12:59;;;;;;;1.73;0.70;;;;;;;5.52;100.00;100904.75;5133583;27;20054;-46
2023/11/24 10:15:30;;;;;;;13.85;1.35;;;;;;;5.51;100.00;100910.03;5133450;27;20040;-49
2023/11/24 10:17:59;;;;;;;10.70;1.38;;;;;;;5.43;100.00;100897.31;5129189;27;20055;-51
2023/11/24 10:20:30;;;;;;;8.27;1.13;;;;;;;5.42;100.00;100909.47;5129807;27;20064;-51
2023/11/24 10:23:00;;;;;;;10.32;1.30;;;;;;;5.39;100.00;100904.41;5130477;27;20630;-48
2023/11/24 10:25:29;;;;;;;6.10;1.02;;;;;;;5.39;100.00;100903.56;5128468;27;20078;-45
2023/11/24 10:28:04;;;;;;;6.07;0.90;;;;;;;5.36;100.00;100899.31;5130347;27;20499;-53
2023/11/24 10:30:35;;;;;;;5.25;0.85;;;;;;;5.37;100.00;100901.03;5130570;27;20157;-48
2023/11/24 10:33:04;;;;;;;3.50;0.88;;;;;;;5.31;100.00;100888.22;5130041;27;20561;-48
2023/11/24 10:35:33;;;;;;;5.43;1.15;;;;;;;5.31;100.00;100882.19;5129798;27;20047;-48
2023/11/24 10:38:02;;;;;;;5.68;0.90;;;;;;;5.33;100.00;100882.94;5128926;27;20058;-48
2023/11/24 10:40:33;;;;;;;6.32;1.20;;;;;;;5.34;100.00;100887.25;5132399;27;20126;-47
2023/11/24 10:43:03;;;;;;;7.45;1.40;;;;;;;5.37;100.00;100879.28;5130409;27;20051;-46
2023/11/24 10:45:34;;;;;;;10.30;1.42;;;;;;;5.44;100.00;100862.50;5128391;27;20062;-46
2023/11/24 10:48:09;;;;;;;6.38;1.33;;;;;;;5.44;100.00;100870.31;5129971;27;20069;-47
2023/11/24 10:50:42;;;;;;;8.65;1.25;;;;;;;5.47;100.00;100864.97;5131473;27;20047;-54
2023/11/24 10:53:20;;;;;;;8.60;1.30;;;;;;;5.51;100.00;100860.47;5132957;27;20058;-55
2023/11/24 10:55:49;;;;;;;6.47;1.15;;;;;;;5.61;100.00;100856.53;5127884;27;20049;-47
2023/11/24 10:58:18;;;;;;;8.52;1.00;;;;;;;5.71;100.00;100849.13;5127993;27;20051;-47
2023/11/24 11:00:49;;;;;;;6.85;1.35;;;;;;;5.78;100.00;100855.78;5130430;27;20063;-55
2023/11/24 11:03:19;;;;;;;7.22;1.23;;;;;;;5.83;100.00;100866.84;5129407;27;20095;-50
2023/11/24 11:05:57;;;;;;;7.93;1.02;;;;;;;5.80;100.00;100861.78;5129165;27;20079;-46
2023/11/24 11:08:34;;;;;;;8.43;1.30;;;;;;;5.82;100.00;100859.94;5128269;28;20055;-45
2023/11/24 11:11:28;;;;;;;5.85;1.15;;;;;;;5.82;100.00;100865.16;5128904;28;20054;-49
2023/11/24 11:13:59;;;;;;;8.38;1.15;;;;;;;5.80;100.00;100861.78;5117338;28;20090;-47
2023/11/24 11:16:29;;;;;;;10.18;1.20;;;;;;;5.82;100.00;100859.94;5129743;28;20085;-47
2023/11/24 11:19:31;;;;;;;8.38;1.42;;;;;;;5.80;100.00;100843.50;5131007;27;20800;-46
2023/11/24 11:22:00;;;;;;;8.82;1.23;;;;;;;5.78;100.00;100850.56;5133832;27;20126;-51
2023/11/24 11:24:34;;;;;;;8.05;1.25;;;;;;;5.82;100.00;100838.19;5134096;27;20441;-50
2023/11/24 11:27:03;;;;;;;9.25;1.50;;;;;;;5.81;100.00;100834.75;5136811;27;20134;-49
2023/11/24 11:29:34;;;;;;;11.53;1.97;;;;;;;5.82;100.00;100820.81;5135402;27;20130;-48
2023/11/24 11:32:11;;;;;;;4.90;1.33;;;;;;;5.84;100.00;100824.16;5133621;27;20047;-49